Time;durP1;ratioP1;P1;durP2;ratioP2;P2;SDS_P1;SDS_P2;PMS_P1;PMS_P2;Temp;Humidity;BMP_temperature;BMP_pressure;BME280_temperature;BME280_humidity;BME280_pressure;Samples;Min_cycle;Max_cycle;Signal;HPM_P1;HPM_P2
2022/06/02 00:01:39;;;;;;;3.00;1.53;;;;;;;16.49;49.22;100798.47;5085564;28;20316;-73
2022/06/02 00:04:18;;;;;;;3.83;2.13;;;;;;;16.46;49.08;100793.47;5082591;28;20242;-74
2022/06/02 00:06:51;;;;;;;2.80;1.80;;;;;;;16.41;49.09;100785.16;5085146;28;20219;-74
2022/06/02 00:09:36;;;;;;;7.27;2.03;;;;;;;16.39;49.36;100794.34;5086232;28;20675;-73
2022/06/02 00:12:10;;;;;;;6.60;2.40;;;;;;;16.28;49.79;100789.41;5085020;28;20626;-73
2022/06/02 00:14:51;;;;;;;5.27;1.93;;;;;;;16.24;49.72;100791.63;5083622;28;20251;-74
2022/06/02 00:17:29;;;;;;;5.17;1.70;;;;;;;16.15;49.93;100790.84;5084984;28;20200;-73
2022/06/02 00:20:04;;;;;;;3.90;1.87;;;;;;;16.09;50.09;100796.91;5084693;28;20206;-73
2022/06/02 00:22:39;;;;;;;3.53;1.70;;;;;;;16.05;50.14;100795.56;5089781;28;20621;-73
2022/06/02 00:25:15;;;;;;;5.37;1.93;;;;;;;16.01;50.38;100794.25;5087407;28;20220;-73
2022/06/02 00:27:53;;;;;;;3.17;2.00;;;;;;;15.96;50.32;100801.97;5086582;28;20210;-74
2022/06/02 00:30:24;;;;;;;4.57;1.90;;;;;;;15.93;50.44;100801.47;5082839;28;20246;-72
2022/06/02 00:33:00;;;;;;;4.13;2.10;;;;;;;15.93;50.57;100801.47;5084601;28;20294;-73
2022/06/02 00:35:37;;;;;;;4.73;2.27;;;;;;;15.85;50.61;100805.03;5085377;28;20221;-72
2022/06/02 00:38:18;;;;;;;2.47;1.67;;;;;;;15.85;50.72;100814.88;5088791;28;20255;-73
2022/06/02 00:40:47;;;;;;;4.23;2.17;;;;;;;15.93;50.73;100810.34;5087646;28;20203;-73
2022/06/02 00:43:45;;;;;;;3.43;2.00;;;;;;;15.96;50.54;100815.34;5086039;28;20327;-72
2022/06/02 00:46:24;;;;;;;3.70;2.33;;;;;;;15.93;50.39;100812.19;5087147;28;20226;-72
2022/06/02 00:48:59;;;;;;;5.60;2.00;;;;;;;15.92;50.42;100826.59;5084946;28;20309;-72
2022/06/02 00:51:40;;;;;;;4.60;2.57;;;;;;;15.79;50.49;100825.28;5084226;28;20712;-72
2022/06/02 00:57:35;;;;;;;4.70;2.17;;;;;;;15.64;51.15;100828.84;5084734;28;20217;-73
2022/06/02 01:00:12;;;;;;;4.13;2.10;;;;;;;15.67;51.36;100828.50;5087449;28;20251;-73
2022/06/02 01:02:46;;;;;;;3.50;1.77;;;;;;;15.67;51.20;100839.19;5084897;28;20225;-73
2022/06/02 01:05:15;;;;;;;2.87;1.80;;;;;;;15.71;51.03;100840.53;5083138;28;20246;-73
2022/06/02 01:07:53;;;;;;;3.60;2.17;;;;;;;15.69;51.08;100838.00;5082823;28;20345;-73
2022/06/02 01:10:34;;;;;;;2.80;1.90;;;;;;;15.67;50.86;100833.84;5087382;28;20293;-73
2022/06/02 01:13:34;;;;;;;5.17;2.27;;;;;;;15.67;51.42;100837.34;5084372;28;20678;-73
2022/06/02 01:16:12;;;;;;;6.00;2.63;;;;;;;15.59;51.52;100842.72;5086676;28;20215;-73
2022/06/02 01:18:52;;;;;;;3.93;1.90;;;;;;;15.58;51.63;100845.56;5086259;28;20300;-73
2022/06/02 01:21:35;;;;;;;6.27;2.20;;;;;;;15.56;52.07;100839.56;5087827;28;20285;-73
2022/06/02 01:24:36;;;;;;;2.77;2.07;;;;;;;15.50;52.15;100833.03;5086359;28;20214;-73
2022/06/02 01:27:41;;;;;;;5.73;2.70;;;;;;;15.43;51.90;100837.38;5088019;28;20290;-73
2022/06/02 01:30:47;;;;;;;3.73;2.23;;;;;;;15.38;51.95;100837.91;5087301;28;20681;-71
2022/06/02 01:33:26;;;;;;;6.60;2.33;;;;;;;15.31;52.16;100838.75;5086410;28;20217;-73
2022/06/02 01:36:03;;;;;;;4.23;2.40;;;;;;;15.32;51.97;100841.25;5087052;28;20592;-73
2022/06/02 01:38:45;;;;;;;5.03;2.40;;;;;;;15.33;52.09;100836.75;5086493;28;20205;-73
2022/06/02 01:41:23;;;;;;;4.40;2.23;;;;;;;15.28;52.11;100837.25;5087860;28;20651;-71
2022/06/02 01:44:02;;;;;;;6.03;2.30;;;;;;;15.24;52.13;100840.44;5086515;28;20199;-71
2022/06/02 01:46:42;;;;;;;5.90;2.40;;;;;;;15.24;52.29;100832.41;5083418;28;20333;-72
2022/06/02 01:49:27;;;;;;;4.90;2.53;;;;;;;15.22;52.14;100845.94;5087851;28;20246;-72
2022/06/02 01:52:07;;;;;;;6.57;2.80;;;;;;;15.18;52.35;100839.28;5087638;28;20263;-72
2022/06/02 01:54:43;;;;;;;5.83;3.00;;;;;;;15.14;52.51;100837.09;5089876;28;20645;-72
2022/06/02 01:57:32;;;;;;;5.00;3.00;;;;;;;15.14;52.24;100834.44;5087544;28;20287;-72
2022/06/02 02:00:06;;;;;;;6.87;2.63;;;;;;;15.06;52.47;100843.28;5087920;28;21103;-72
2022/06/02 02:02:46;;;;;;;7.47;2.80;;;;;;;15.05;52.63;100844.28;5085754;28;20697;-72
2022/06/02 02:05:28;;;;;;;4.37;3.10;;;;;;;15.04;52.53;100851.47;5086826;28;20207;-72
2022/06/02 02:08:09;;;;;;;4.97;3.10;;;;;;;15.02;52.53;100849.97;5087465;28;20244;-72
2022/06/02 02:10:49;;;;;;;7.43;3.33;;;;;;;14.94;52.59;100855.31;5087282;28;20206;-72
2022/06/02 02:13:25;;;;;;;4.40;2.70;;;;;;;14.88;52.95;100853.31;5089722;28;20836;-72
2022/06/02 02:16:03;;;;;;;6.07;2.77;;;;;;;14.89;53.03;100854.97;5085983;28;20216;-71
2022/06/02 02:18:48;;;;;;;4.77;2.70;;;;;;;14.90;52.91;100852.13;5086945;28;20609;-71
2022/06/02 02:21:25;;;;;;;4.70;3.17;;;;;;;14.83;52.94;100855.66;5083205;28;20246;-72
2022/06/02 02:24:08;;;;;;;5.93;3.07;;;;;;;14.80;53.20;100866.66;5088024;28;20621;-72
2022/06/02 02:26:42;;;;;;;5.27;3.43;;;;;;;14.78;52.91;100858.78;5084030;28;20225;-72
2022/06/02 02:29:26;;;;;;;7.00;2.73;;;;;;;14.76;52.93;100865.31;5083902;28;20700;-72
2022/06/02 02:32:04;;;;;;;5.53;3.10;;;;;;;14.73;53.04;100865.66;5085384;28;20214;-72
2022/06/02 02:34:43;;;;;;;4.17;3.07;;;;;;;14.68;53.28;100867.00;5089661;28;20217;-72
2022/06/02 02:37:15;;;;;;;7.70;3.37;;;;;;;14.65;53.35;100869.16;5089697;28;20230;-72
2022/06/02 02:39:50;;;;;;;5.17;3.60;;;;;;;14.62;53.38;100864.97;5085123;28;20238;-72
2022/06/02 02:42:25;;;;;;;4.37;3.07;;;;;;;14.60;53.30;100877.63;5088143;28;20208;-72
2022/06/02 02:45:08;;;;;;;6.70;3.63;;;;;;;14.60;53.21;100874.97;5084954;28;20301;-72
2022/06/02 02:47:45;;;;;;;6.23;3.30;;;;;;;14.58;53.49;100868.13;5085459;28;20591;-72
2022/06/02 02:50:22;;;;;;;5.03;3.63;;;;;;;14.51;53.77;100873.28;5087156;28;20659;-73
2022/06/02 02:52:58;;;;;;;4.77;3.50;;;;;;;14.48;53.71;100872.78;5085212;28;20210;-72
2022/06/02 02:55:32;;;;;;;6.00;3.70;;;;;;;14.45;53.63;100873.94;5088019;28;20233;-72
2022/06/02 02:58:09;;;;;;;5.27;3.43;;;;;;;14.46;53.67;100862.28;5088427;28;20230;-73
2022/06/02 03:00:42;;;;;;;3.80;3.10;;;;;;;14.43;53.72;100867.91;5081848;28;20252;-74
2022/06/02 03:03:17;;;;;;;6.77;3.67;;;;;;;14.39;53.82;100868.44;5086318;28;20202;-72
2022/06/02 03:06:09;;;;;;;7.03;3.93;;;;;;;14.35;53.95;100872.38;5087942;28;20213;-72
2022/06/02 03:08:49;;;;;;;5.30;3.67;;;;;;;14.31;54.07;100877.22;5085950;28;20226;-72
2022/06/02 03:11:40;;;;;;;5.80;3.70;;;;;;;14.29;54.17;100879.19;5087720;28;20301;-72
2022/06/02 03:14:19;;;;;;;6.97;3.67;;;;;;;14.25;54.40;100878.69;5088516;28;20203;-72
2022/06/02 03:19:50;;;;;;;6.40;3.87;;;;;;;14.23;54.39;100879.88;5087053;28;20213;-72
2022/06/02 03:22:32;;;;;;;6.03;3.73;;;;;;;14.21;54.33;100879.19;5088654;28;20244;-72
2022/06/02 03:25:10;;;;;;;6.00;4.03;;;;;;;14.21;54.39;100885.34;5089277;28;20224;-72
2022/06/02 03:27:48;;;;;;;6.30;3.97;;;;;;;14.27;54.39;100883.84;5091140;28;20230;-72
2022/06/02 03:30:22;;;;;;;7.17;4.30;;;;;;;14.29;54.40;100890.72;5088626;28;20649;-72
2022/06/02 03:33:17;;;;;;;9.17;4.70;;;;;;;14.20;54.54;100883.69;5087511;28;20319;-72
2022/06/02 03:36:02;;;;;;;7.63;4.10;;;;;;;14.18;54.57;100898.16;5088073;28;20213;-72
2022/06/02 03:38:57;;;;;;;7.07;4.13;;;;;;;14.17;54.77;100894.66;5089744;28;20309;-72
2022/06/02 03:41:50;;;;;;;8.97;4.20;;;;;;;14.15;54.65;100901.16;5089932;28;20201;-72
2022/06/02 03:44:27;;;;;;;5.30;4.13;;;;;;;14.11;54.87;100900.66;5076297;28;20490;-72
2022/06/02 03:47:24;;;;;;;6.70;4.90;;;;;;;14.06;55.01;100897.63;5086734;28;20212;-72
2022/06/02 03:50:20;;;;;;;8.67;5.40;;;;;;;14.05;55.04;100908.47;5086654;28;20233;-72
2022/06/02 03:53:11;;;;;;;7.20;5.03;;;;;;;14.05;54.95;100903.13;5086637;28;20296;-72
2022/06/02 03:56:08;;;;;;;5.43;4.43;;;;;;;14.09;54.92;100907.13;5082732;28;20232;-72
2022/06/02 03:58:57;;;;;;;7.30;4.57;;;;;;;14.07;54.80;100909.94;5087560;28;20628;-72
2022/06/02 04:01:27;;;;;;;8.97;4.73;;;;;;;14.02;54.95;100914.94;5087308;28;20305;-72
2022/06/02 04:04:14;;;;;;;6.33;4.80;;;;;;;14.02;54.89;100914.09;5088601;28;20224;-72
2022/06/02 04:06:55;;;;;;;5.83;4.73;;;;;;;14.03;54.99;100918.44;5087845;28;20222;-72
2022/06/02 04:09:43;;;;;;;8.07;4.63;;;;;;;14.04;55.26;100925.44;5088189;28;20349;-71
2022/06/02 04:15:38;;;;;;;6.83;4.90;;;;;;;14.03;54.98;100916.59;5085560;28;20218;-72
2022/06/02 04:18:24;;;;;;;6.77;5.17;;;;;;;14.06;55.17;100921.63;5087473;28;20208;-72
2022/06/02 04:21:05;;;;;;;6.73;5.23;;;;;;;14.06;55.28;100910.13;5085418;28;20657;-72
2022/06/02 04:23:56;;;;;;;8.63;4.97;;;;;;;14.08;55.21;100913.44;5084595;28;20227;-72
2022/06/02 04:26:41;;;;;;;8.17;4.60;;;;;;;14.16;55.24;100913.50;5086419;28;20283;-72
2022/06/02 04:29:24;;;;;;;7.17;5.00;;;;;;;14.20;55.51;100917.50;5086157;28;20236;-72
2022/06/02 04:32:00;;;;;;;11.03;5.13;;;;;;;14.23;55.51;100922.53;5087021;28;20272;-72
2022/06/02 04:34:47;;;;;;;8.17;5.00;;;;;;;14.22;55.57;100926.19;5083528;28;20202;-72
2022/06/02 04:37:22;;;;;;;8.60;5.10;;;;;;;14.27;55.61;100929.22;5084994;28;20214;-72
2022/06/02 04:40:03;;;;;;;11.33;5.07;;;;;;;14.31;55.49;100934.06;5086011;28;20215;-72
2022/06/02 04:42:38;;;;;;;9.47;6.03;;;;;;;14.34;55.32;100935.56;5086833;28;20721;-72
2022/06/02 04:45:17;;;;;;;11.17;6.80;;;;;;;14.40;55.11;100936.81;5086864;28;20205;-72
2022/06/02 04:47:55;;;;;;;9.20;5.20;;;;;;;14.44;55.16;100941.63;5084390;28;20248;-72
2022/06/02 04:50:30;;;;;;;9.80;5.67;;;;;;;14.56;55.12;100943.03;5087826;28;20212;-72
2022/06/02 04:53:09;;;;;;;13.27;5.60;;;;;;;14.60;55.19;100936.34;5086309;28;20217;-72
2022/06/02 04:55:54;;;;;;;9.17;5.90;;;;;;;14.71;54.95;100942.38;5086908;28;20212;-72
2022/06/02 04:58:31;;;;;;;14.10;5.57;;;;;;;14.74;55.14;100940.22;5085107;28;20662;-72
2022/06/02 05:01:07;;;;;;;11.40;6.50;;;;;;;14.80;54.95;100938.72;5086549;28;20233;-72
2022/06/02 05:03:45;;;;;;;9.63;5.80;;;;;;;14.85;54.46;100939.94;5086740;28;20205;-71
2022/06/02 05:06:27;;;;;;;7.57;5.47;;;;;;;14.93;54.14;100945.28;5087031;28;20213;-73
2022/06/02 05:09:11;;;;;;;10.87;5.70;;;;;;;15.00;54.53;100945.44;5085671;28;20587;-73
2022/06/02 05:11:50;;;;;;;19.80;6.20;;;;;;;15.07;54.42;100949.13;5086592;28;20327;-73
2022/06/02 05:14:30;;;;;;;11.73;6.10;;;;;;;15.15;53.84;100941.13;5084711;28;20679;-73
2022/06/02 05:17:08;;;;;;;6.80;5.07;;;;;;;15.13;54.22;100943.09;5091208;28;20237;-73
2022/06/02 05:19:54;;;;;;;9.87;5.70;;;;;;;15.09;54.34;100947.13;5089407;28;20186;-71
2022/06/02 05:23:07;;;;;;;8.80;5.90;;;;;;;15.12;54.25;100954.81;5090387;28;20345;-72
2022/06/02 05:26:19;;;;;;;7.17;5.80;;;;;;;15.25;53.82;100957.81;5031366;28;20689;-72
2022/06/02 05:29:38;;;;;;;6.40;5.40;;;;;;;15.33;53.70;100960.50;5087901;28;20318;-73
2022/06/02 05:32:37;;;;;;;8.57;6.50;;;;;;;15.40;53.80;100960.66;5008731;28;20734;-72
2022/06/02 05:35:33;;;;;;;12.07;7.20;;;;;;;15.40;54.25;100961.47;5009009;28;20641;-72
2022/06/02 05:38:19;;;;;;;10.07;7.27;;;;;;;15.44;54.49;100968.19;5089404;28;20207;-72
2022/06/02 05:40:54;;;;;;;9.83;7.50;;;;;;;15.47;54.26;100968.84;5090215;28;20245;-72
2022/06/02 05:43:32;;;;;;;9.57;6.93;;;;;;;15.50;54.67;100965.81;5090513;28;20289;-70
2022/06/02 05:46:18;;;;;;;13.47;7.37;;;;;;;15.61;54.33;100968.19;5090454;28;20241;-70
2022/06/02 05:48:58;;;;;;;10.50;7.07;;;;;;;15.70;53.94;100968.03;5087282;28;20238;-70
2022/06/02 05:51:35;;;;;;;12.57;8.17;;;;;;;15.77;54.21;100978.88;5085771;28;20206;-70
2022/06/02 05:54:27;;;;;;;13.90;7.33;;;;;;;15.86;54.16;100982.38;5091457;28;20206;-70
2022/06/02 05:57:04;;;;;;;9.83;6.60;;;;;;;15.92;54.04;100981.69;5090557;28;20491;-70
2022/06/02 05:59:48;;;;;;;10.37;6.20;;;;;;;15.99;53.74;100978.16;5089123;28;20220;-70
2022/06/02 06:02:40;;;;;;;12.37;6.83;;;;;;;16.11;53.63;100983.97;5087627;28;20751;-69
2022/06/02 06:05:29;;;;;;;15.20;6.63;;;;;;;16.18;52.93;100983.09;5090917;28;20281;-69
2022/06/02 06:08:18;;;;;;;9.80;6.20;;;;;;;16.25;52.79;100990.47;5089447;28;20232;-70
2022/06/02 06:10:56;;;;;;;11.73;7.03;;;;;;;16.36;52.90;101000.81;5089301;28;20305;-69
2022/06/02 06:13:37;;;;;;;22.10;7.03;;;;;;;16.36;52.95;101000.81;5088022;28;20205;-72
2022/06/02 06:16:13;;;;;;;15.80;6.33;;;;;;;16.49;52.37;100995.72;5094485;28;20215;-72
2022/06/02 06:18:54;;;;;;;10.40;6.07;;;;;;;16.62;51.92;101000.56;5089159;28;20835;-72
2022/06/02 06:21:40;;;;;;;15.47;5.50;;;;;;;16.77;52.13;101004.16;5088001;28;20673;-72
2022/06/02 06:24:37;;;;;;;11.00;5.67;;;;;;;16.86;51.75;100993.25;5088438;28;20216;-71
2022/06/02 06:27:10;;;;;;;11.30;5.80;;;;;;;16.95;51.64;100996.69;5088860;28;20691;-69
2022/06/02 06:29:54;;;;;;;12.67;5.87;;;;;;;17.01;51.21;100997.81;5087771;28;20307;-68
2022/06/02 06:32:31;;;;;;;8.13;5.13;;;;;;;17.04;50.28;101003.69;5076520;28;20241;-74
2022/06/02 06:35:07;;;;;;;8.80;5.43;;;;;;;17.05;50.27;101001.84;5086602;28;20286;-73
2022/06/02 06:38:01;;;;;;;9.00;4.87;;;;;;;17.07;50.51;100994.44;5083456;28;20690;-72
2022/06/02 06:40:49;;;;;;;8.53;5.20;;;;;;;17.12;50.08;100995.59;5079725;28;20199;-72
2022/06/02 06:43:32;;;;;;;12.70;6.07;;;;;;;17.15;49.79;101002.44;5086504;28;20681;-72
2022/06/02 06:46:08;;;;;;;10.40;5.50;;;;;;;17.19;50.15;101003.72;5085543;28;20210;-71
2022/06/02 06:48:38;;;;;;;10.23;5.60;;;;;;;17.20;50.20;101005.41;5086382;28;20239;-71
2022/06/02 06:51:18;;;;;;;9.33;5.70;;;;;;;17.26;50.50;100999.31;5090323;28;20885;-71
2022/06/02 06:54:00;;;;;;;6.93;4.67;;;;;;;17.29;50.68;100986.41;5084948;28;20309;-71
2022/06/02 06:56:37;;;;;;;11.30;6.50;;;;;;;17.35;50.52;100984.00;5089851;28;20651;-71
2022/06/02 06:59:21;;;;;;;6.83;5.37;;;;;;;17.37;51.08;100990.03;5084080;28;20209;-70
2022/06/02 07:02:01;;;;;;;10.87;5.83;;;;;;;17.38;50.75;100991.72;5088594;28;20293;-71
2022/06/02 07:05:01;;;;;;;13.53;6.07;;;;;;;17.42;50.67;100998.38;5084287;28;20695;-72
2022/06/02 07:07:40;;;;;;;16.57;6.03;;;;;;;17.51;50.56;100998.13;5087715;28;20221;-69
2022/06/02 07:10:14;;;;;;;15.47;5.57;;;;;;;17.56;50.55;101006.47;5088279;28;21907;-70
2022/06/02 07:12:58;;;;;;;10.53;5.80;;;;;;;17.65;50.45;101009.94;5087150;28;20249;-69
2022/06/02 07:15:44;;;;;;;9.63;5.20;;;;;;;17.68;49.94;101007.72;5092379;28;20271;-69
2022/06/02 07:18:32;;;;;;;7.73;4.73;;;;;;;17.79;49.96;101006.47;5091252;28;20607;-70
2022/06/02 07:21:07;;;;;;;10.33;5.20;;;;;;;17.85;49.09;101010.28;5091330;28;20206;-71
2022/06/02 07:23:54;;;;;;;9.67;5.17;;;;;;;17.96;49.03;101009.81;5091630;28;20244;-71
2022/06/02 07:26:41;;;;;;;6.43;4.13;;;;;;;17.89;48.50;101006.19;5088989;28;20293;-71
2022/06/02 07:29:18;;;;;;;9.87;5.03;;;;;;;17.93;48.64;101002.16;5090322;28;20329;-71
2022/06/02 07:32:17;;;;;;;8.47;5.47;;;;;;;18.09;47.83;101001.97;5091295;28;20224;-71
2022/06/02 07:35:03;;;;;;;9.40;4.33;;;;;;;18.06;47.59;100999.66;5088474;28;20202;-71
2022/06/02 07:37:38;;;;;;;7.93;4.53;;;;;;;18.08;47.69;100992.25;5086935;28;20212;-72
2022/06/02 07:40:26;;;;;;;7.70;5.00;;;;;;;18.13;47.33;100995.22;5090533;28;20233;-72
2022/06/02 07:43:24;;;;;;;6.93;5.33;;;;;;;18.24;47.46;100992.06;5088825;28;20213;-72
2022/06/02 07:45:58;;;;;;;8.30;6.33;;;;;;;18.25;47.53;100991.06;5075887;28;20257;-72
2022/06/02 07:48:40;;;;;;;8.53;5.30;;;;;;;18.31;46.94;100990.31;5084112;28;20694;-70
2022/06/02 07:51:18;;;;;;;8.93;4.83;;;;;;;18.39;46.63;100984.00;5091624;28;20695;-71
2022/06/02 07:54:04;;;;;;;8.00;4.63;;;;;;;18.46;46.81;100987.63;5083611;28;20311;-71
2022/06/02 07:56:39;;;;;;;8.13;5.30;;;;;;;18.47;47.21;100986.56;5084642;28;20257;-72
2022/06/02 07:59:19;;;;;;;6.87;4.90;;;;;;;18.51;47.26;100985.19;5085181;28;20353;-71
2022/06/02 08:02:23;;;;;;;10.17;5.10;;;;;;;18.55;46.96;100985.66;5080820;28;20214;-71
2022/06/02 08:05:02;;;;;;;6.60;5.20;;;;;;;18.75;45.45;100984.91;5083950;28;20207;-72
2022/06/02 08:07:39;;;;;;;7.23;5.23;;;;;;;18.80;45.71;100987.03;5088565;28;20218;-72
2022/06/02 08:10:25;;;;;;;6.33;3.60;;;;;;;18.95;44.13;100990.50;5086373;28;20313;-72
2022/06/02 08:13:00;;;;;;;9.43;4.33;;;;;;;19.10;43.36;100995.81;5085673;28;20219;-72
2022/06/02 08:15:38;;;;;;;9.50;4.77;;;;;;;19.00;44.18;101004.19;5085357;28;20210;-71
2022/06/02 08:18:21;;;;;;;7.60;4.40;;;;;;;19.11;44.40;101003.69;5085279;28;20311;-72
2022/06/02 08:20:57;;;;;;;7.57;4.37;;;;;;;19.09;45.08;101002.22;5086616;28;20709;-71
2022/06/02 08:24:07;;;;;;;16.60;3.97;;;;;;;19.20;44.02;100998.19;5087466;28;20230;-71
2022/06/02 08:26:45;;;;;;;7.27;3.40;;;;;;;19.31;43.89;101008.47;5085011;28;20203;-71
2022/06/02 08:29:32;;;;;;;6.27;4.00;;;;;;;19.39;43.82;100993.03;5085281;28;20222;-71
2022/06/02 08:32:15;;;;;;;6.10;3.53;;;;;;;19.45;43.10;100988.72;5083510;28;20218;-70
2022/06/02 08:34:54;;;;;;;6.17;2.97;;;;;;;19.49;42.96;100985.50;5086166;28;20203;-72
2022/06/02 08:37:34;;;;;;;12.03;3.37;;;;;;;19.59;42.55;101000.47;5085798;28;20281;-72
2022/06/02 08:40:56;;;;;;;10.30;3.33;;;;;;;19.62;42.45;100986.63;5086038;28;20285;-70
2022/06/02 08:43:59;;;;;;;4.67;3.17;;;;;;;19.67;42.81;100992.25;5080287;28;20206;-71
2022/06/02 08:46:47;;;;;;;6.47;3.20;;;;;;;19.74;42.50;100988.59;5084826;28;20245;-71
2022/06/02 08:49:37;;;;;;;6.43;3.50;;;;;;;19.80;41.69;100981.59;5085762;28;20231;-72
2022/06/02 08:52:40;;;;;;;6.20;3.13;;;;;;;19.77;42.92;100993.59;5085258;28;20576;-71
2022/06/02 08:55:44;;;;;;;7.23;3.80;;;;;;;19.78;42.80;100989.88;5085916;28;20221;-72
2022/06/02 08:59:10;;;;;;;5.93;3.40;;;;;;;19.79;43.77;101002.28;5086533;28;20347;-70
2022/06/02 09:01:59;;;;;;;8.90;3.70;;;;;;;19.82;43.90;100996.53;5086607;28;20232;-71
2022/06/02 09:05:04;;;;;;;10.10;3.60;;;;;;;19.92;43.84;101002.41;5083993;28;20231;-72
2022/06/02 09:07:57;;;;;;;4.60;2.83;;;;;;;20.04;42.77;100999.16;5082397;28;20203;-72
2022/06/02 09:10:35;;;;;;;4.60;2.67;;;;;;;20.13;42.99;100998.00;5083188;28;20226;-71
2022/06/02 09:13:39;;;;;;;4.80;2.67;;;;;;;20.23;42.57;100998.44;5082371;28;20245;-72
2022/06/02 09:16:20;;;;;;;5.33;2.67;;;;;;;20.34;42.36;101002.44;5062335;28;20207;-71
2022/06/02 09:19:19;;;;;;;6.83;2.70;;;;;;;20.41;41.37;101012.25;5085483;28;20252;-71
2022/06/02 09:22:02;;;;;;;8.03;2.43;;;;;;;20.42;40.94;101005.00;5085684;28;20238;-71
2022/06/02 09:24:42;;;;;;;5.00;2.47;;;;;;;20.50;40.54;101005.66;5083117;28;20198;-72
2022/06/02 09:28:03;;;;;;;11.07;2.70;;;;;;;20.48;41.13;100994.28;5087490;28;20230;-73
2022/06/02 09:30:42;;;;;;;8.07;3.00;;;;;;;20.45;40.66;100999.22;5085655;28;20677;-71
2022/06/02 09:33:37;;;;;;;5.80;2.63;;;;;;;20.60;40.35;100995.34;5086370;28;20253;-72
2022/06/02 09:36:37;;;;;;;8.13;2.53;;;;;;;20.59;40.10;100995.53;5085476;28;20296;-71
2022/06/02 09:39:35;;;;;;;4.90;1.90;;;;;;;20.59;40.34;100988.28;5088350;28;20202;-72
2022/06/02 09:42:30;;;;;;;8.47;2.50;;;;;;;20.57;40.12;100995.78;5087291;28;20291;-72
2022/06/02 09:45:13;;;;;;;4.60;2.10;;;;;;;20.62;39.25;100989.75;5086215;28;20211;-72
2022/06/02 09:48:12;;;;;;;5.17;2.00;;;;;;;20.71;38.28;100982.34;5080896;28;20244;-71
2022/06/02 09:50:57;;;;;;;5.50;2.10;;;;;;;20.85;37.99;100976.78;5065241;28;20657;-71
2022/06/02 09:53:58;;;;;;;4.57;2.03;;;;;;;20.84;38.34;100977.00;5084778;28;20203;-73
2022/06/02 10:00:11;;;;;;;6.00;2.30;;;;;;;21.07;39.71;100973.94;5044031;28;20221;-71
2022/06/02 10:02:46;;;;;;;4.73;2.20;;;;;;;21.12;39.40;100972.28;5086182;28;20252;-71
2022/06/02 10:05:35;;;;;;;6.80;2.17;;;;;;;21.14;38.79;100977.47;5085016;28;20267;-71
2022/06/02 10:08:17;;;;;;;3.63;1.77;;;;;;;21.07;38.96;100977.47;5088680;28;20732;-71
2022/06/02 10:11:04;;;;;;;3.23;1.40;;;;;;;21.02;39.32;100982.66;5091684;28;20509;-71
2022/06/02 10:13:47;;;;;;;4.60;1.70;;;;;;;21.04;38.12;100983.25;5096092;28;20396;-71
2022/06/02 10:16:50;;;;;;;3.83;1.70;;;;;;;21.07;38.38;100985.56;5086359;28;20241;-70
2022/06/02 10:19:55;;;;;;;3.47;1.53;;;;;;;21.10;37.95;100984.31;5091303;28;20213;-72
2022/06/02 10:22:35;;;;;;;5.30;1.90;;;;;;;21.13;36.98;100983.91;5091886;28;20252;-70
2022/06/02 10:25:43;;;;;;;5.13;2.20;;;;;;;21.05;36.69;100982.22;5095882;28;20255;-71
2022/06/02 10:28:40;;;;;;;3.07;1.90;;;;;;;20.94;37.38;100980.13;5074142;28;20218;-71
2022/06/02 10:31:56;;;;;;;5.37;2.27;;;;;;;20.91;37.25;100980.53;5091962;28;20218;-71
2022/06/02 10:34:43;;;;;;;4.20;1.67;;;;;;;21.03;37.71;100976.19;5092516;28;20203;-71
2022/06/02 10:37:58;;;;;;;6.70;2.27;;;;;;;21.17;38.14;100977.94;5083799;28;20211;-71
2022/06/02 10:40:46;;;;;;;3.67;2.50;;;;;;;21.20;37.42;100985.59;5070490;28;20269;-72
2022/06/02 10:43:42;;;;;;;4.50;2.03;;;;;;;21.21;37.80;100976.47;5087724;28;20206;-72
2022/06/02 10:46:44;;;;;;;3.80;2.07;;;;;;;21.26;38.51;100984.78;5067163;28;20686;-72
2022/06/02 10:49:26;;;;;;;35.47;3.90;;;;;;;21.25;37.93;100985.84;5085644;28;20313;-73
2022/06/02 10:52:41;;;;;;;3.33;1.90;;;;;;;21.25;36.84;100985.84;5083504;28;20219;-71
2022/06/02 10:55:41;;;;;;;6.17;1.80;;;;;;;21.32;38.68;100981.28;5086378;28;20217;-67
2022/06/02 10:58:43;;;;;;;2.67;1.53;;;;;;;21.30;38.03;100975.25;5073718;28;20215;-68
2022/06/02 11:01:44;;;;;;;13.50;1.73;;;;;;;21.39;37.51;100968.59;5088497;28;20715;-73
2022/06/02 11:05:04;;;;;;;3.63;1.37;;;;;;;21.53;38.11;100968.63;5080531;28;20226;-71
2022/06/02 11:08:13;;;;;;;3.97;1.50;;;;;;;21.56;36.73;100968.19;5084426;28;20206;-71
2022/06/02 11:11:01;;;;;;;5.77;1.17;;;;;;;21.72;37.21;100971.28;5060690;28;20623;-71
2022/06/02 11:14:01;;;;;;;2.73;1.63;;;;;;;21.71;35.90;100966.13;5085285;28;20202;-71
2022/06/02 11:17:06;;;;;;;3.97;1.50;;;;;;;21.83;36.64;100964.44;5085698;28;20240;-71
2022/06/02 11:20:10;;;;;;;5.63;1.67;;;;;;;22.05;35.59;100959.66;5088311;28;20290;-72
2022/06/02 11:23:20;;;;;;;4.50;1.40;;;;;;;22.11;35.41;100950.72;5087744;28;20542;-71
2022/06/02 11:26:22;;;;;;;1.83;1.20;;;;;;;22.11;34.74;100951.53;5087705;28;20246;-72
2022/06/02 11:29:27;;;;;;;4.63;1.80;;;;;;;22.22;35.08;100957.34;5088940;28;20219;-71
2022/06/02 11:32:13;;;;;;;4.77;1.30;;;;;;;22.26;35.46;100953.16;5087046;28;20218;-71
2022/06/02 11:35:18;;;;;;;3.57;1.40;;;;;;;22.50;36.49;100949.75;5088693;28;20198;-71
2022/06/02 11:38:05;;;;;;;1.85;1.20;;;;;;;22.46;36.78;100945.81;5088458;28;20250;-71
2022/06/02 11:41:03;;;;;;;3.22;1.25;;;;;;;22.64;34.42;100943.22;5085817;28;20210;-70
2022/06/02 11:43:44;;;;;;;3.03;1.33;;;;;;;22.56;34.72;100942.66;5080465;28;20211;-70
2022/06/02 11:46:46;;;;;;;3.77;1.20;;;;;;;22.47;34.45;100945.59;5085201;28;20720;-70
2022/06/02 11:49:56;;;;;;;2.42;1.10;;;;;;;22.34;35.27;100944.84;5082768;28;20230;-71
2022/06/02 11:52:43;;;;;;;2.42;0.90;;;;;;;22.35;35.17;100935.66;5084162;28;20232;-72
2022/06/02 11:55:25;;;;;;;3.80;1.20;;;;;;;22.32;34.32;100928.84;5081850;28;20663;-70
2022/06/02 11:58:17;;;;;;;3.53;1.23;;;;;;;22.22;34.05;100922.22;5085485;28;20663;-72
2022/06/02 12:01:26;;;;;;;6.43;1.63;;;;;;;22.14;34.76;100928.69;5080959;28;20622;-71
2022/06/02 12:04:14;;;;;;;3.88;1.30;;;;;;;22.14;34.07;100924.13;5081291;28;20203;-70
2022/06/02 12:07:24;;;;;;;3.17;1.40;;;;;;;22.08;34.23;100914.16;5079872;28;20272;-71
2022/06/02 12:10:09;;;;;;;2.53;1.17;;;;;;;21.92;34.76;100914.59;5083265;28;20475;-71
2022/06/02 12:13:01;;;;;;;2.70;1.00;;;;;;;21.89;34.41;100915.03;5083483;28;20227;-71
2022/06/02 12:16:01;;;;;;;3.43;1.10;;;;;;;21.92;34.02;100914.59;5081021;28;20211;-69
2022/06/02 12:18:37;;;;;;;2.87;1.20;;;;;;;21.75;35.48;100914.22;5084273;28;20597;-71
2022/06/02 12:21:41;;;;;;;4.87;1.30;;;;;;;21.84;34.96;100911.28;5081880;28;20761;-71
2022/06/02 12:24:31;;;;;;;3.20;1.20;;;;;;;21.79;35.20;100911.94;5082337;28;20236;-70
2022/06/02 12:27:44;;;;;;;3.30;1.10;;;;;;;21.66;35.15;100904.66;5084307;28;20199;-69
2022/06/02 12:30:22;;;;;;;3.97;1.50;;;;;;;21.82;34.69;100903.38;5008547;28;20224;-71
2022/06/02 12:33:15;;;;;;;2.40;1.20;;;;;;;21.71;35.58;100906.75;5087955;28;20222;-69
2022/06/02 12:36:17;;;;;;;3.87;1.00;;;;;;;21.70;35.68;100888.91;5081870;28;20210;-70
2022/06/02 12:39:19;;;;;;;4.43;1.63;;;;;;;21.58;35.40;100893.25;5087837;28;20552;-71
2022/06/02 12:42:10;;;;;;;2.73;1.10;;;;;;;21.63;36.65;100891.63;5081864;28;20210;-71
2022/06/02 12:44:55;;;;;;;1.80;1.20;;;;;;;21.73;36.93;100885.75;5083653;28;20206;-71
2022/06/02 12:47:52;;;;;;;2.03;1.20;;;;;;;21.80;35.94;100889.28;5081291;28;20580;-70
2022/06/02 12:50:48;;;;;;;6.13;1.67;;;;;;;21.96;36.43;100879.91;5084434;28;20632;-72
2022/06/02 12:53:47;;;;;;;2.53;1.30;;;;;;;21.97;36.44;100879.72;5085116;28;20269;-73
2022/06/02 12:57:08;;;;;;;3.90;1.50;;;;;;;21.96;36.29;100878.03;5086142;28;20805;-73
2022/06/02 13:00:02;;;;;;;1.97;1.20;;;;;;;22.04;35.56;100869.72;5022724;28;20208;-74
2022/06/02 13:02:49;;;;;;;2.77;1.13;;;;;;;22.12;35.60;100872.19;5021310;28;20205;-71
2022/06/02 13:05:49;;;;;;;1.77;0.90;;;;;;;22.22;35.42;100871.72;5080582;28;20483;-72
2022/06/02 13:08:57;;;;;;;2.20;1.00;;;;;;;22.21;34.72;100866.53;5081951;28;20233;-72